Ana Sayfa
METAR-TAF:

METAR-TAF

Havaalanları :

Majuro, Marshall Adaları

Enlem: 07-04N, Boylam: 171-17E, yükseklik: 2 m

Güncel hava durumu gözlemi

Rapor saat 09:50 UTC de 9 saat ve 39 dakika önce yapıldı.
Rüzgar doğudan 7 kt
Sıcaklık 29°C
Nem 79%
Basınç 1008 hPa
Görüş mesafesi: 24.1 km
1500 ft yükseklikte az bulutlu
5000 ft yükseklikte parçalı bulutlu
30000 ft yükseklikte parçalı çok bulutlu

METAR: PKMJ 190950Z 09007KT 15SM FEW015 SCT050 BKN300 29/25 A2977 RMK LAST

Saat: 07:29 (19:29 UTC)

Tahmin

Rapor saat 17:20 UTC de 2 saat ve 9 dakika önce yapıldı.
Ayın 19'si saat 18 UTC'den ayın 20'si saat 18 UTC'ye kadar geçerli Tahmin
Rüzgar doğudan 12 kt
Görüş mesafesi: 10 km
1800 ft yükseklikte az bulutlu
14000 ft yükseklikte parçalı bulutlu

TAF: PKMJ 191720Z 1918/2018 10012KT P6SM FEW018 SCT140

4.000'den fazla havaalanı için hava durumu gözlemleri ve tahminleri (METAR ve TAF raporları).

Kullanılabilir istasyonlar harita üzerinde sarı ve kırmızı noktalarla gösterilir.

İstasyonun adını görmek için fareyi noktanın üzerinde gezdirin.

Sonrasında hava gözlem ve tahminlerini görmek için tıklayın.

Haritayı değiştirmek için: yaklaştırmak için siyah artı işaretli yeşil düğmeye ve uzaklaştırmak için de eksi işaretli düğmeye hızla tıklayın; bitişik haritalar için yeşil okları kullanın.


METAR-TAF: